createdAt,value
2022-10-21T00:00:01.005Z,1021.76
2022-10-21T00:10:01.009Z,1021.62
2022-10-21T00:20:02.989Z,1021.54
2022-10-21T00:30:01.080Z,1021.81
2022-10-21T00:40:01.079Z,1021.94
2022-10-21T00:50:00.177Z,1021.82
2022-10-21T01:00:01.269Z,1021.81
2022-10-21T01:10:01.069Z,1021.52
2022-10-21T01:20:00.941Z,1021.53
2022-10-21T01:30:00.166Z,1021.40
2022-10-21T01:40:01.242Z,1021.15
2022-10-21T01:50:00.147Z,1021.18
2022-10-21T02:00:01.003Z,1021.03
2022-10-21T02:10:01.042Z,1020.87
2022-10-21T02:20:01.015Z,1020.67
2022-10-21T02:30:01.018Z,1020.43
2022-10-21T02:40:01.026Z,1020.75
2022-10-21T02:50:00.152Z,1020.37
2022-10-21T03:00:01.025Z,1019.97
2022-10-21T03:10:00.152Z,1019.93
2022-10-21T03:20:02.008Z,1019.91
2022-10-21T03:30:00.174Z,1019.99
2022-10-21T03:40:01.193Z,1019.84
2022-10-21T03:50:01.032Z,1019.94
2022-10-21T04:00:01.244Z,1020.01
2022-10-21T04:10:00.990Z,1019.97
2022-10-21T04:20:00.976Z,1019.55
2022-10-21T04:30:01.076Z,1019.15
2022-10-21T04:40:00.993Z,1019.10
2022-10-21T04:50:01.335Z,1018.98
2022-10-21T05:00:01.164Z,1018.90
2022-10-21T05:10:00.132Z,1018.61
2022-10-21T05:20:00.993Z,1018.48
2022-10-21T05:30:01.316Z,1018.58
2022-10-21T05:40:00.138Z,1018.47
2022-10-21T05:50:01.275Z,1018.43
2022-10-21T06:00:01.319Z,1018.23
2022-10-21T06:10:01.695Z,1018.30
2022-10-21T06:20:00.124Z,1018.40
2022-10-21T06:30:01.340Z,1018.64
2022-10-21T06:40:00.141Z,1018.72
2022-10-21T06:50:01.032Z,1018.88
2022-10-21T07:00:02.236Z,1018.81
2022-10-21T07:10:01.256Z,1018.79
2022-10-21T07:20:01.196Z,1018.92
2022-10-21T07:30:01.056Z,1018.95
2022-10-21T07:40:01.697Z,1018.80
2022-10-21T07:50:00.997Z,1018.74
2022-10-21T08:00:00.987Z,1018.67
2022-10-21T08:10:00.178Z,1018.55
2022-10-21T08:20:01.011Z,1018.53
2022-10-21T08:30:01.014Z,1018.35
2022-10-21T08:40:03.418Z,1018.11
2022-10-21T08:50:01.499Z,1018.01
2022-10-21T09:00:00.959Z,1017.89
2022-10-21T09:10:01.153Z,1017.76
2022-10-21T09:20:01.042Z,1017.66
2022-10-21T09:30:01.033Z,1017.56
2022-10-21T09:40:01.540Z,1017.50
2022-10-21T09:50:07.169Z,1017.46
2022-10-21T10:00:01.286Z,1017.44
2022-10-21T10:10:00.788Z,1017.37
2022-10-21T10:20:00.920Z,1017.12
2022-10-21T10:30:01.121Z,1016.99
2022-10-21T10:40:01.235Z,1016.94
2022-10-21T11:00:01.329Z,1016.55
2022-10-21T11:10:01.300Z,1016.44
2022-10-21T11:20:01.047Z,1016.46
2022-10-21T11:30:00.248Z,1016.44
2022-10-21T11:40:01.246Z,1016.41
2022-10-21T12:00:01.281Z,1016.38
2022-10-21T12:20:01.232Z,1016.33
2022-10-21T12:30:01.392Z,1016.32
2022-10-21T12:40:01.209Z,1016.28
2022-10-21T13:00:01.282Z,1016.20
2022-10-21T13:10:02.874Z,1016.10
2022-10-21T13:20:03.166Z,1016.11
2022-10-21T13:30:00.187Z,1015.99
2022-10-21T13:40:00.116Z,1016.02
2022-10-21T13:50:01.464Z,1016.09
2022-10-21T14:00:01.307Z,1016.02
2022-10-21T14:20:01.114Z,1016.13
2022-10-21T14:30:00.289Z,1016.04
2022-10-21T14:40:00.198Z,1016.06
2022-10-21T14:50:02.705Z,1015.98
2022-10-21T15:00:01.956Z,1015.92
2022-10-21T15:10:02.079Z,1015.83
2022-10-21T15:20:02.664Z,1015.69
2022-10-21T15:30:02.603Z,1015.69
2022-10-21T15:40:01.204Z,1015.77
2022-10-21T15:50:02.986Z,1015.69
2022-10-21T16:00:01.080Z,1015.63
2022-10-21T16:10:01.011Z,1015.69
2022-10-21T16:20:01.303Z,1015.73
2022-10-21T16:30:01.266Z,1015.81
2022-10-21T16:40:00.994Z,1015.83
2022-10-21T16:50:01.347Z,1015.91
2022-10-21T17:00:01.338Z,1016.12
2022-10-21T17:10:01.482Z,1016.26
2022-10-21T17:20:01.255Z,1016.50
2022-10-21T17:30:00.996Z,1016.79
2022-10-21T17:40:01.200Z,1017.17
2022-10-21T17:50:02.553Z,1017.32
2022-10-21T18:10:00.171Z,1017.22
2022-10-21T18:20:01.325Z,1017.15
2022-10-21T18:30:01.038Z,1017.26
2022-10-21T18:40:01.546Z,1017.54
2022-10-21T18:50:01.060Z,1017.61
2022-10-21T19:00:01.030Z,1017.54
2022-10-21T19:10:01.930Z,1017.38
2022-10-21T19:20:01.527Z,1017.35
2022-10-21T19:30:02.124Z,1017.46
2022-10-21T19:40:02.339Z,1017.52
2022-10-21T19:50:00.236Z,1017.71
2022-10-21T20:00:02.470Z,1017.81
2022-10-21T20:10:01.050Z,1017.66
2022-10-21T20:20:02.133Z,1017.54
2022-10-21T20:30:02.554Z,1017.66
2022-10-21T20:40:01.470Z,1017.62
2022-10-21T20:50:01.107Z,1017.43
2022-10-21T21:00:01.256Z,1017.43
2022-10-21T21:10:03.632Z,1017.54
2022-10-21T21:20:01.252Z,1017.83
2022-10-21T21:30:01.184Z,1018.06
2022-10-21T21:40:00.146Z,1017.97
2022-10-21T21:50:02.703Z,1017.78
2022-10-21T22:00:02.526Z,1017.60
2022-10-21T22:10:01.295Z,1017.64
2022-10-21T22:20:01.015Z,1017.56
2022-10-21T22:30:01.130Z,1017.75
2022-10-21T22:40:02.375Z,1017.83
2022-10-21T22:50:01.265Z,1017.91
2022-10-21T23:00:00.980Z,1017.97
2022-10-21T23:10:03.668Z,1018.03
2022-10-21T23:20:00.969Z,1017.94
2022-10-21T23:40:01.685Z,1017.47
2022-10-21T23:50:01.035Z,1017.37
